aviador You're here:

UUEE Decoded Metar

MOSCOW/SHEREMETYEVO in RUSSIA
Report Time2017-03-30 18:00:00
UTC Time2017-03-30 18:38:10
Flight Rules vfr VFR
Wind250° at 8 kt
W.Decomp.*RWY 25: 7.9 kt HW 1.4 kt LCW
W.Rank250° ranks 2
Current wind is below 250° avg. (9.1)
Visibility9999 m
Phenomena:N/A
Clouds:N/A
Expected CloudBase > 4,400 ft AGL from Temp-Dew spread
CeilingNone
Temp-3°C (ISA -17)
Dew Point-14°C (43% RH)
AAT-9.2°C
QNH1021 hPa
Density Alt-1,677 ft
Elevation623 ft
Report Wrong Elevation
Raw Report
UUEE 301800Z 25004MPS CAVOK M03/M14 Q1021 R24L/410257 R24R/410257
NOSIG=

Extra information for UUEE:More info

Metar Taf Metar & Taf Last 4 Metars F.Rules Stats Wind Profile Meteogram Temp Stats Airport Information Weather charts Add Link Nearby VenuesMetar ALERT Operation Metar Decoded Social comments